sensor_id;sensor_type;location;lat;lon;timestamp;temperature;humidity
52415;DHT22;38340;52.964;6.086;2023-08-07T00:00:14;14.80;99.90
52415;DHT22;38340;52.964;6.086;2023-08-07T00:02:40;14.80;99.90
52415;DHT22;38340;52.964;6.086;2023-08-07T00:05:06;14.80;99.90
52415;DHT22;38340;52.964;6.086;2023-08-07T00:07:31;14.80;99.90
52415;DHT22;38340;52.964;6.086;2023-08-07T00:09:57;14.80;99.90
52415;DHT22;38340;52.964;6.086;2023-08-07T00:12:23;14.70;99.90
52415;DHT22;38340;52.964;6.086;2023-08-07T00:14:51;14.70;99.90
52415;DHT22;38340;52.964;6.086;2023-08-07T00:17:17;14.70;99.90
52415;DHT22;38340;52.964;6.086;2023-08-07T00:19:43;14.60;99.90
52415;DHT22;38340;52.964;6.086;2023-08-07T00:22:08;14.60;99.90
52415;DHT22;38340;52.964;6.086;2023-08-07T00:24:34;14.50;99.90
52415;DHT22;38340;52.964;6.086;2023-08-07T00:27:00;14.50;99.90
52415;DHT22;38340;52.964;6.086;2023-08-07T00:29:26;14.40;99.90
52415;DHT22;38340;52.964;6.086;2023-08-07T00:31:52;14.40;99.90
52415;DHT22;38340;52.964;6.086;2023-08-07T00:34:18;14.40;99.90
52415;DHT22;38340;52.964;6.086;2023-08-07T00:36:43;14.40;99.90
52415;DHT22;38340;52.964;6.086;2023-08-07T00:39:09;14.30;99.90
52415;DHT22;38340;52.964;6.086;2023-08-07T00:41:35;14.30;99.90
52415;DHT22;38340;52.964;6.086;2023-08-07T00:44:01;14.30;99.90
52415;DHT22;38340;52.964;6.086;2023-08-07T00:46:27;14.30;99.90
52415;DHT22;38340;52.964;6.086;2023-08-07T00:48:54;14.30;99.90
52415;DHT22;38340;52.964;6.086;2023-08-07T00:51:21;14.20;99.90
52415;DHT22;38340;52.964;6.086;2023-08-07T00:53:48;14.30;99.90
52415;DHT22;38340;52.964;6.086;2023-08-07T00:56:14;14.30;99.90
52415;DHT22;38340;52.964;6.086;2023-08-07T00:58:40;14.20;99.90
52415;DHT22;38340;52.964;6.086;2023-08-07T01:01:06;14.30;99.90
52415;DHT22;38340;52.964;6.086;2023-08-07T01:03:32;14.20;99.90
52415;DHT22;38340;52.964;6.086;2023-08-07T01:05:58;14.20;99.90
52415;DHT22;38340;52.964;6.086;2023-08-07T01:08:25;14.30;99.90
52415;DHT22;38340;52.964;6.086;2023-08-07T01:11:05;14.20;99.90
52415;DHT22;38340;52.964;6.086;2023-08-07T01:14:03;14.20;99.90
52415;DHT22;38340;52.964;6.086;2023-08-07T01:16:52;14.20;99.90
52415;DHT22;38340;52.964;6.086;2023-08-07T01:19:29;14.20;99.90
52415;DHT22;38340;52.964;6.086;2023-08-07T01:22:09;14.10;99.90
52415;DHT22;38340;52.964;6.086;2023-08-07T01:24:37;14.10;99.90
52415;DHT22;38340;52.964;6.086;2023-08-07T01:32:29;14.00;99.90
52415;DHT22;38340;52.964;6.086;2023-08-07T01:34:58;14.00;99.90
52415;DHT22;38340;52.964;6.086;2023-08-07T01:37:29;14.10;99.90
52415;DHT22;38340;52.964;6.086;2023-08-07T01:39:58;14.10;99.90
52415;DHT22;38340;52.964;6.086;2023-08-07T01:42:26;14.10;99.90
52415;DHT22;38340;52.964;6.086;2023-08-07T01:44:52;14.00;99.90
52415;DHT22;38340;52.964;6.086;2023-08-07T01:47:18;14.00;99.90
52415;DHT22;38340;52.964;6.086;2023-08-07T01:49:43;14.00;99.90
52415;DHT22;38340;52.964;6.086;2023-08-07T01:52:09;13.90;99.90
52415;DHT22;38340;52.964;6.086;2023-08-07T01:54:36;13.90;99.90
52415;DHT22;38340;52.964;6.086;2023-08-07T01:57:02;13.80;99.90
52415;DHT22;38340;52.964;6.086;2023-08-07T01:59:28;13.80;99.90
52415;DHT22;38340;52.964;6.086;2023-08-07T02:01:54;13.70;99.90
52415;DHT22;38340;52.964;6.086;2023-08-07T02:04:19;13.80;99.90
52415;DHT22;38340;52.964;6.086;2023-08-07T02:06:45;13.70;99.90
52415;DHT22;38340;52.964;6.086;2023-08-07T02:09:11;13.70;99.90
52415;DHT22;38340;52.964;6.086;2023-08-07T02:11:36;13.70;99.90
52415;DHT22;38340;52.964;6.086;2023-08-07T02:14:02;13.70;99.90
52415;DHT22;38340;52.964;6.086;2023-08-07T02:16:28;13.70;99.90
52415;DHT22;38340;52.964;6.086;2023-08-07T02:18:54;13.70;99.90
52415;DHT22;38340;52.964;6.086;2023-08-07T02:21:19;13.70;99.90
52415;DHT22;38340;52.964;6.086;2023-08-07T02:23:45;13.60;99.90
52415;DHT22;38340;52.964;6.086;2023-08-07T02:26:10;13.60;99.90
52415;DHT22;38340;52.964;6.086;2023-08-07T02:28:36;13.60;99.90
52415;DHT22;38340;52.964;6.086;2023-08-07T02:31:02;13.60;99.90
52415;DHT22;38340;52.964;6.086;2023-08-07T02:33:27;13.60;99.90
52415;DHT22;38340;52.964;6.086;2023-08-07T02:35:56;13.60;99.90
52415;DHT22;38340;52.964;6.086;2023-08-07T02:38:22;13.50;99.90
52415;DHT22;38340;52.964;6.086;2023-08-07T02:40:47;13.50;99.90
52415;DHT22;38340;52.964;6.086;2023-08-07T02:43:13;13.50;99.90
52415;DHT22;38340;52.964;6.086;2023-08-07T02:45:39;13.50;99.90
52415;DHT22;38340;52.964;6.086;2023-08-07T02:48:04;13.50;99.90
52415;DHT22;38340;52.964;6.086;2023-08-07T02:50:31;13.50;99.90
52415;DHT22;38340;52.964;6.086;2023-08-07T02:52:58;13.50;99.90
52415;DHT22;38340;52.964;6.086;2023-08-07T02:55:24;13.50;99.90
52415;DHT22;38340;52.964;6.086;2023-08-07T02:57:50;13.50;99.90
52415;DHT22;38340;52.964;6.086;2023-08-07T03:00:16;13.60;99.90
52415;DHT22;38340;52.964;6.086;2023-08-07T03:02:41;13.50;99.90
52415;DHT22;38340;52.964;6.086;2023-08-07T03:05:08;13.60;99.90
52415;DHT22;38340;52.964;6.086;2023-08-07T03:07:33;13.60;99.90
52415;DHT22;38340;52.964;6.086;2023-08-07T03:09:59;13.70;99.90
52415;DHT22;38340;52.964;6.086;2023-08-07T03:12:25;13.80;99.90
52415;DHT22;38340;52.964;6.086;2023-08-07T03:14:50;13.80;99.90
52415;DHT22;38340;52.964;6.086;2023-08-07T03:17:16;13.90;99.90
52415;DHT22;38340;52.964;6.086;2023-08-07T03:19:43;13.90;99.90
52415;DHT22;38340;52.964;6.086;2023-08-07T03:22:09;14.00;99.90
52415;DHT22;38340;52.964;6.086;2023-08-07T03:24:35;14.00;99.90
52415;DHT22;38340;52.964;6.086;2023-08-07T03:27:00;14.10;99.90
52415;DHT22;38340;52.964;6.086;2023-08-07T03:29:26;14.10;99.90
52415;DHT22;38340;52.964;6.086;2023-08-07T03:31:52;14.10;99.90
52415;DHT22;38340;52.964;6.086;2023-08-07T03:34:18;14.10;99.90
52415;DHT22;38340;52.964;6.086;2023-08-07T03:36:44;14.10;99.90
52415;DHT22;38340;52.964;6.086;2023-08-07T03:39:10;14.10;99.90
52415;DHT22;38340;52.964;6.086;2023-08-07T03:41:37;14.10;99.90
52415;DHT22;38340;52.964;6.086;2023-08-07T03:44:03;14.10;99.90
52415;DHT22;38340;52.964;6.086;2023-08-07T03:46:29;14.10;99.90
52415;DHT22;38340;52.964;6.086;2023-08-07T03:48:54;14.10;99.90
52415;DHT22;38340;52.964;6.086;2023-08-07T03:51:20;14.10;99.90
52415;DHT22;38340;52.964;6.086;2023-08-07T03:53:46;14.10;99.90
52415;DHT22;38340;52.964;6.086;2023-08-07T03:56:12;14.10;99.90
52415;DHT22;38340;52.964;6.086;2023-08-07T03:58:38;14.10;99.90
52415;DHT22;38340;52.964;6.086;2023-08-07T04:01:03;14.10;99.90
52415;DHT22;38340;52.964;6.086;2023-08-07T04:03:29;14.00;99.90
52415;DHT22;38340;52.964;6.086;2023-08-07T04:05:55;14.00;99.90
52415;DHT22;38340;52.964;6.086;2023-08-07T04:08:22;14.00;99.90
52415;DHT22;38340;52.964;6.086;2023-08-07T04:11:01;14.00;99.90
52415;DHT22;38340;52.964;6.086;2023-08-07T04:13:28;14.00;99.90
52415;DHT22;38340;52.964;6.086;2023-08-07T04:15:53;14.00;99.90
52415;DHT22;38340;52.964;6.086;2023-08-07T04:18:19;14.00;99.90
52415;DHT22;38340;52.964;6.086;2023-08-07T04:20:58;14.00;99.90
52415;DHT22;38340;52.964;6.086;2023-08-07T04:23:24;14.00;99.90
52415;DHT22;38340;52.964;6.086;2023-08-07T04:25:52;14.00;99.90
52415;DHT22;38340;52.964;6.086;2023-08-07T04:28:18;14.10;99.90
52415;DHT22;38340;52.964;6.086;2023-08-07T04:30:47;14.10;99.90
52415;DHT22;38340;52.964;6.086;2023-08-07T04:33:14;14.20;99.90
52415;DHT22;38340;52.964;6.086;2023-08-07T04:35:39;14.20;99.90
52415;DHT22;38340;52.964;6.086;2023-08-07T04:38:05;14.20;99.90
52415;DHT22;38340;52.964;6.086;2023-08-07T04:40:31;14.20;99.90
52415;DHT22;38340;52.964;6.086;2023-08-07T04:42:56;14.20;99.90
52415;DHT22;38340;52.964;6.086;2023-08-07T04:45:22;14.20;99.90
52415;DHT22;38340;52.964;6.086;2023-08-07T04:47:48;14.10;99.90
52415;DHT22;38340;52.964;6.086;2023-08-07T04:50:13;14.10;99.90
52415;DHT22;38340;52.964;6.086;2023-08-07T04:52:39;14.10;99.90
52415;DHT22;38340;52.964;6.086;2023-08-07T04:55:05;14.10;99.90
52415;DHT22;38340;52.964;6.086;2023-08-07T04:57:31;14.10;99.90
52415;DHT22;38340;52.964;6.086;2023-08-07T04:59:56;14.10;99.90
52415;DHT22;38340;52.964;6.086;2023-08-07T05:02:22;14.10;99.90
52415;DHT22;38340;52.964;6.086;2023-08-07T05:04:48;14.10;99.90
52415;DHT22;38340;52.964;6.086;2023-08-07T05:07:13;14.10;99.90
52415;DHT22;38340;52.964;6.086;2023-08-07T05:09:39;14.00;99.90
52415;DHT22;38340;52.964;6.086;2023-08-07T05:12:06;14.00;99.90
52415;DHT22;38340;52.964;6.086;2023-08-07T05:14:32;14.00;99.90
52415;DHT22;38340;52.964;6.086;2023-08-07T05:16:58;13.90;99.90
52415;DHT22;38340;52.964;6.086;2023-08-07T05:19:25;14.00;99.90
52415;DHT22;38340;52.964;6.086;2023-08-07T05:21:51;14.10;99.90
52415;DHT22;38340;52.964;6.086;2023-08-07T05:24:17;14.10;99.90
52415;DHT22;38340;52.964;6.086;2023-08-07T05:26:44;14.20;99.90
52415;DHT22;38340;52.964;6.086;2023-08-07T05:29:09;14.60;99.90
52415;DHT22;38340;52.964;6.086;2023-08-07T05:31:35;14.60;99.90
52415;DHT22;38340;52.964;6.086;2023-08-07T05:34:01;14.60;99.90
52415;DHT22;38340;52.964;6.086;2023-08-07T05:36:27;14.70;99.90
52415;DHT22;38340;52.964;6.086;2023-08-07T05:38:53;14.60;99.90
52415;DHT22;38340;52.964;6.086;2023-08-07T05:41:19;14.80;99.90
52415;DHT22;38340;52.964;6.086;2023-08-07T05:43:45;14.80;99.90
52415;DHT22;38340;52.964;6.086;2023-08-07T05:46:11;14.70;99.90
52415;DHT22;38340;52.964;6.086;2023-08-07T05:48:37;14.70;99.90
52415;DHT22;38340;52.964;6.086;2023-08-07T05:51:02;14.70;99.90
52415;DHT22;38340;52.964;6.086;2023-08-07T05:53:28;14.60;99.90
52415;DHT22;38340;52.964;6.086;2023-08-07T05:55:55;14.60;99.90
52415;DHT22;38340;52.964;6.086;2023-08-07T05:58:20;14.60;99.90
52415;DHT22;38340;52.964;6.086;2023-08-07T06:00:46;14.60;99.90
52415;DHT22;38340;52.964;6.086;2023-08-07T06:03:12;14.60;99.90
52415;DHT22;38340;52.964;6.086;2023-08-07T06:05:38;14.60;99.90
52415;DHT22;38340;52.964;6.086;2023-08-07T06:08:04;14.60;99.90
52415;DHT22;38340;52.964;6.086;2023-08-07T06:10:30;14.60;99.90
52415;DHT22;38340;52.964;6.086;2023-08-07T06:12:55;14.60;99.90
52415;DHT22;38340;52.964;6.086;2023-08-07T06:15:21;14.60;99.90
52415;DHT22;38340;52.964;6.086;2023-08-07T06:17:47;14.60;99.90
52415;DHT22;38340;52.964;6.086;2023-08-07T06:20:12;14.70;99.90
52415;DHT22;38340;52.964;6.086;2023-08-07T06:22:40;14.80;99.90
52415;DHT22;38340;52.964;6.086;2023-08-07T06:25:06;14.80;99.90
52415;DHT22;38340;52.964;6.086;2023-08-07T06:27:32;14.90;99.90
52415;DHT22;38340;52.964;6.086;2023-08-07T06:29:58;14.90;99.90
52415;DHT22;38340;52.964;6.086;2023-08-07T06:32:25;14.90;99.90
52415;DHT22;38340;52.964;6.086;2023-08-07T06:34:51;15.00;99.90
52415;DHT22;38340;52.964;6.086;2023-08-07T06:37:17;14.90;99.90
52415;DHT22;38340;52.964;6.086;2023-08-07T06:39:43;14.90;99.90
52415;DHT22;38340;52.964;6.086;2023-08-07T06:42:10;14.90;99.90
52415;DHT22;38340;52.964;6.086;2023-08-07T06:44:35;15.00;99.90
52415;DHT22;38340;52.964;6.086;2023-08-07T06:47:01;14.90;99.90
52415;DHT22;38340;52.964;6.086;2023-08-07T06:49:27;14.90;99.90
52415;DHT22;38340;52.964;6.086;2023-08-07T06:51:52;14.90;99.90
52415;DHT22;38340;52.964;6.086;2023-08-07T06:54:18;15.00;99.90
52415;DHT22;38340;52.964;6.086;2023-08-07T06:56:44;15.10;99.90
52415;DHT22;38340;52.964;6.086;2023-08-07T06:59:10;15.20;99.90
52415;DHT22;38340;52.964;6.086;2023-08-07T07:01:36;15.30;99.90
52415;DHT22;38340;52.964;6.086;2023-08-07T07:04:01;15.50;99.90
52415;DHT22;38340;52.964;6.086;2023-08-07T07:06:27;15.50;99.90
52415;DHT22;38340;52.964;6.086;2023-08-07T07:08:53;15.60;99.90
52415;DHT22;38340;52.964;6.086;2023-08-07T07:11:22;15.70;99.90
52415;DHT22;38340;52.964;6.086;2023-08-07T07:13:50;15.70;99.90
52415;DHT22;38340;52.964;6.086;2023-08-07T07:16:20;15.80;99.90
52415;DHT22;38340;52.964;6.086;2023-08-07T07:18:49;15.80;99.90
52415;DHT22;38340;52.964;6.086;2023-08-07T07:21:14;15.50;99.90
52415;DHT22;38340;52.964;6.086;2023-08-07T07:23:40;14.70;99.90
52415;DHT22;38340;52.964;6.086;2023-08-07T07:26:06;14.30;99.90
52415;DHT22;38340;52.964;6.086;2023-08-07T07:28:32;13.90;99.90
52415;DHT22;38340;52.964;6.086;2023-08-07T07:30:57;13.80;99.90
52415;DHT22;38340;52.964;6.086;2023-08-07T07:33:23;13.80;99.90
52415;DHT22;38340;52.964;6.086;2023-08-07T07:35:49;13.90;99.90
52415;DHT22;38340;52.964;6.086;2023-08-07T07:38:14;14.00;99.90
52415;DHT22;38340;52.964;6.086;2023-08-07T07:40:41;14.00;99.90
52415;DHT22;38340;52.964;6.086;2023-08-07T07:43:07;14.00;99.90
52415;DHT22;38340;52.964;6.086;2023-08-07T07:45:33;14.20;99.90
52415;DHT22;38340;52.964;6.086;2023-08-07T07:48:04;14.50;99.90
52415;DHT22;38340;52.964;6.086;2023-08-07T07:50:32;14.70;99.90
52415;DHT22;38340;52.964;6.086;2023-08-07T07:52:57;15.10;99.90
52415;DHT22;38340;52.964;6.086;2023-08-07T07:55:25;15.40;99.90
52415;DHT22;38340;52.964;6.086;2023-08-07T07:57:51;15.60;99.90
52415;DHT22;38340;52.964;6.086;2023-08-07T08:00:17;16.00;99.90
52415;DHT22;38340;52.964;6.086;2023-08-07T08:02:43;16.20;99.90
52415;DHT22;38340;52.964;6.086;2023-08-07T08:05:09;15.80;99.90
52415;DHT22;38340;52.964;6.086;2023-08-07T08:07:38;14.90;99.90
52415;DHT22;38340;52.964;6.086;2023-08-07T08:10:06;14.50;99.90
52415;DHT22;38340;52.964;6.086;2023-08-07T08:12:32;14.30;99.90
52415;DHT22;38340;52.964;6.086;2023-08-07T08:14:58;14.20;99.90
52415;DHT22;38340;52.964;6.086;2023-08-07T08:17:24;14.40;99.90
52415;DHT22;38340;52.964;6.086;2023-08-07T08:19:50;14.50;99.90
52415;DHT22;38340;52.964;6.086;2023-08-07T08:22:15;14.60;99.90
52415;DHT22;38340;52.964;6.086;2023-08-07T08:24:41;14.60;99.90
52415;DHT22;38340;52.964;6.086;2023-08-07T08:27:07;14.70;99.90
52415;DHT22;38340;52.964;6.086;2023-08-07T08:29:32;14.80;99.90
52415;DHT22;38340;52.964;6.086;2023-08-07T08:31:58;15.10;99.90
52415;DHT22;38340;52.964;6.086;2023-08-07T08:34:26;15.30;99.90
52415;DHT22;38340;52.964;6.086;2023-08-07T08:36:52;15.70;99.90
52415;DHT22;38340;52.964;6.086;2023-08-07T08:39:18;15.90;99.90
52415;DHT22;38340;52.964;6.086;2023-08-07T08:41:46;15.90;99.90
52415;DHT22;38340;52.964;6.086;2023-08-07T08:44:14;16.30;99.90
52415;DHT22;38340;52.964;6.086;2023-08-07T08:46:42;16.40;99.90
52415;DHT22;38340;52.964;6.086;2023-08-07T08:49:10;16.30;99.90
52415;DHT22;38340;52.964;6.086;2023-08-07T08:51:36;16.10;99.90
52415;DHT22;38340;52.964;6.086;2023-08-07T08:54:03;16.10;99.90
52415;DHT22;38340;52.964;6.086;2023-08-07T08:56:29;16.30;99.90
52415;DHT22;38340;52.964;6.086;2023-08-07T08:58:56;16.50;99.90
52415;DHT22;38340;52.964;6.086;2023-08-07T09:01:22;16.70;99.90
52415;DHT22;38340;52.964;6.086;2023-08-07T09:03:50;16.70;1.00
52415;DHT22;38340;52.964;6.086;2023-08-07T09:06:18;16.60;99.90
52415;DHT22;38340;52.964;6.086;2023-08-07T09:08:44;16.50;1.00
52415;DHT22;38340;52.964;6.086;2023-08-07T09:11:12;16.70;66.80
52415;DHT22;38340;52.964;6.086;2023-08-07T09:13:40;17.10;99.90
52415;DHT22;38340;52.964;6.086;2023-08-07T09:16:09;17.10;1.00
52415;DHT22;38340;52.964;6.086;2023-08-07T09:18:35;16.60;99.90
52415;DHT22;38340;52.964;6.086;2023-08-07T09:21:01;16.30;99.90
52415;DHT22;38340;52.964;6.086;2023-08-07T09:23:27;16.30;99.90
52415;DHT22;38340;52.964;6.086;2023-08-07T09:26:01;16.30;1.00
52415;DHT22;38340;52.964;6.086;2023-08-07T09:28:28;16.40;1.00
52415;DHT22;38340;52.964;6.086;2023-08-07T09:30:55;16.60;1.00
52415;DHT22;38340;52.964;6.086;2023-08-07T09:33:28;16.90;91.60
52415;DHT22;38340;52.964;6.086;2023-08-07T09:36:01;16.80;99.90
52415;DHT22;38340;52.964;6.086;2023-08-07T09:38:30;17.00;99.90
52415;DHT22;38340;52.964;6.086;2023-08-07T09:41:00;17.30;1.00
52415;DHT22;38340;52.964;6.086;2023-08-07T09:43:25;17.50;99.90
52415;DHT22;38340;52.964;6.086;2023-08-07T09:45:51;17.30;99.90
52415;DHT22;38340;52.964;6.086;2023-08-07T09:48:23;17.00;99.90
52415;DHT22;38340;52.964;6.086;2023-08-07T09:50:50;16.50;99.90
52415;DHT22;38340;52.964;6.086;2023-08-07T09:53:16;16.60;99.90
52415;DHT22;38340;52.964;6.086;2023-08-07T09:55:42;16.80;1.00
52415;DHT22;38340;52.964;6.086;2023-08-07T09:58:12;17.20;99.90
52415;DHT22;38340;52.964;6.086;2023-08-07T10:00:40;17.60;99.90
52415;DHT22;38340;52.964;6.086;2023-08-07T10:03:07;17.20;1.00
52415;DHT22;38340;52.964;6.086;2023-08-07T10:05:33;17.10;99.90
52415;DHT22;38340;52.964;6.086;2023-08-07T10:07:58;16.60;82.80
52415;DHT22;38340;52.964;6.086;2023-08-07T10:10:25;16.40;99.90
52415;DHT22;38340;52.964;6.086;2023-08-07T10:12:52;16.20;99.90
52415;DHT22;38340;52.964;6.086;2023-08-07T10:15:19;16.20;99.90
52415;DHT22;38340;52.964;6.086;2023-08-07T10:17:45;16.20;50.90
52415;DHT22;38340;52.964;6.086;2023-08-07T10:20:12;16.30;99.90
52415;DHT22;38340;52.964;6.086;2023-08-07T10:22:38;16.40;99.90
52415;DHT22;38340;52.964;6.086;2023-08-07T10:25:06;16.60;99.90
52415;DHT22;38340;52.964;6.086;2023-08-07T10:27:37;16.80;99.90
52415;DHT22;38340;52.964;6.086;2023-08-07T10:30:06;17.00;99.90
52415;DHT22;38340;52.964;6.086;2023-08-07T10:32:33;17.40;68.80
52415;DHT22;38340;52.964;6.086;2023-08-07T10:35:03;17.70;1.00
52415;DHT22;38340;52.964;6.086;2023-08-07T10:37:44;17.40;1.00
52415;DHT22;38340;52.964;6.086;2023-08-07T10:40:11;17.10;1.00
52415;DHT22;38340;52.964;6.086;2023-08-07T10:45:34;17.10;99.90
52415;DHT22;38340;52.964;6.086;2023-08-07T10:48:14;17.40;99.90
52415;DHT22;38340;52.964;6.086;2023-08-07T10:56:04;17.40;99.90
52415;DHT22;38340;52.964;6.086;2023-08-07T10:58:35;17.50;92.50
52415;DHT22;38340;52.964;6.086;2023-08-07T11:03:56;18.00;1.00
52415;DHT22;38340;52.964;6.086;2023-08-07T11:06:32;18.10;1.00
52415;DHT22;38340;52.964;6.086;2023-08-07T11:08:59;18.10;1.00
52415;DHT22;38340;52.964;6.086;2023-08-07T11:11:27;18.00;99.90
52415;DHT22;38340;52.964;6.086;2023-08-07T11:13:52;18.00;99.90
52415;DHT22;38340;52.964;6.086;2023-08-07T11:16:18;18.20;99.90
52415;DHT22;38340;52.964;6.086;2023-08-07T11:18:47;18.30;28.70
52415;DHT22;38340;52.964;6.086;2023-08-07T11:21:13;18.30;1.00
52415;DHT22;38340;52.964;6.086;2023-08-07T11:23:40;18.10;1.00
52415;DHT22;38340;52.964;6.086;2023-08-07T11:26:08;17.90;99.90
52415;DHT22;38340;52.964;6.086;2023-08-07T11:28:34;17.80;99.90
52415;DHT22;38340;52.964;6.086;2023-08-07T11:31:00;17.80;1.00
52415;DHT22;38340;52.964;6.086;2023-08-07T11:33:27;17.80;1.00
52415;DHT22;38340;52.964;6.086;2023-08-07T11:35:53;17.60;99.90
52415;DHT22;38340;52.964;6.086;2023-08-07T11:38:52;17.60;1.00
52415;DHT22;38340;52.964;6.086;2023-08-07T11:41:18;17.60;99.90
52415;DHT22;38340;52.964;6.086;2023-08-07T11:43:44;17.60;1.00
52415;DHT22;38340;52.964;6.086;2023-08-07T11:46:13;17.80;99.90
52415;DHT22;38340;52.964;6.086;2023-08-07T11:48:41;18.30;1.00
52415;DHT22;38340;52.964;6.086;2023-08-07T11:51:07;18.50;99.90
52415;DHT22;38340;52.964;6.086;2023-08-07T11:53:38;18.40;99.90
52415;DHT22;38340;52.964;6.086;2023-08-07T11:56:09;18.20;1.00
52415;DHT22;38340;52.964;6.086;2023-08-07T11:58:40;17.90;61.70
52415;DHT22;38340;52.964;6.086;2023-08-07T12:01:09;17.80;99.90
52415;DHT22;38340;52.964;6.086;2023-08-07T12:03:37;17.20;17.70
52415;DHT22;38340;52.964;6.086;2023-08-07T12:06:06;16.90;1.00
52415;DHT22;38340;52.964;6.086;2023-08-07T12:08:37;16.30;99.90
52415;DHT22;38340;52.964;6.086;2023-08-07T12:11:12;16.30;1.00
52415;DHT22;38340;52.964;6.086;2023-08-07T12:13:43;16.10;56.90
52415;DHT22;38340;52.964;6.086;2023-08-07T12:16:11;16.10;99.90
52415;DHT22;38340;52.964;6.086;2023-08-07T12:18:48;16.20;99.90
52415;DHT22;38340;52.964;6.086;2023-08-07T12:21:18;16.40;99.90
52415;DHT22;38340;52.964;6.086;2023-08-07T12:23:45;16.50;99.90
52415;DHT22;38340;52.964;6.086;2023-08-07T12:26:13;16.70;99.90
52415;DHT22;38340;52.964;6.086;2023-08-07T12:28:39;16.60;99.90
52415;DHT22;38340;52.964;6.086;2023-08-07T12:31:04;16.30;99.90
52415;DHT22;38340;52.964;6.086;2023-08-07T12:33:32;16.30;99.90
52415;DHT22;38340;52.964;6.086;2023-08-07T12:35:58;16.30;99.90
52415;DHT22;38340;52.964;6.086;2023-08-07T12:38:24;16.20;99.90
52415;DHT22;38340;52.964;6.086;2023-08-07T12:40:50;16.30;99.90
52415;DHT22;38340;52.964;6.086;2023-08-07T12:43:16;16.50;99.90
52415;DHT22;38340;52.964;6.086;2023-08-07T12:45:42;16.60;99.90
52415;DHT22;38340;52.964;6.086;2023-08-07T12:48:08;16.80;99.90
52415;DHT22;38340;52.964;6.086;2023-08-07T12:50:34;17.00;99.90
52415;DHT22;38340;52.964;6.086;2023-08-07T12:53:00;17.00;99.90
52415;DHT22;38340;52.964;6.086;2023-08-07T12:55:26;17.00;99.90
52415;DHT22;38340;52.964;6.086;2023-08-07T12:57:54;16.80;99.90
52415;DHT22;38340;52.964;6.086;2023-08-07T13:00:20;16.80;99.90
52415;DHT22;38340;52.964;6.086;2023-08-07T13:02:48;16.40;99.90
52415;DHT22;38340;52.964;6.086;2023-08-07T13:05:14;16.10;99.90
52415;DHT22;38340;52.964;6.086;2023-08-07T13:07:42;15.90;99.90
52415;DHT22;38340;52.964;6.086;2023-08-07T13:10:10;15.90;99.90
52415;DHT22;38340;52.964;6.086;2023-08-07T13:12:37;16.00;99.90
52415;DHT22;38340;52.964;6.086;2023-08-07T13:15:04;16.10;99.90
52415;DHT22;38340;52.964;6.086;2023-08-07T13:17:31;16.10;99.90
52415;DHT22;38340;52.964;6.086;2023-08-07T13:19:57;16.10;99.90
52415;DHT22;38340;52.964;6.086;2023-08-07T13:22:23;16.20;99.90
52415;DHT22;38340;52.964;6.086;2023-08-07T13:24:49;16.50;99.90
52415;DHT22;38340;52.964;6.086;2023-08-07T13:27:14;16.60;99.90
52415;DHT22;38340;52.964;6.086;2023-08-07T13:29:40;16.70;99.90
52415;DHT22;38340;52.964;6.086;2023-08-07T13:32:06;16.70;99.90
52415;DHT22;38340;52.964;6.086;2023-08-07T13:34:36;16.70;99.90
52415;DHT22;38340;52.964;6.086;2023-08-07T13:37:04;16.80;99.90
52415;DHT22;38340;52.964;6.086;2023-08-07T13:39:29;17.00;99.90
52415;DHT22;38340;52.964;6.086;2023-08-07T13:41:55;17.30;99.90
52415;DHT22;38340;52.964;6.086;2023-08-07T13:44:21;17.40;99.90
52415;DHT22;38340;52.964;6.086;2023-08-07T13:46:48;17.50;99.90
52415;DHT22;38340;52.964;6.086;2023-08-07T13:49:14;17.60;99.90
52415;DHT22;38340;52.964;6.086;2023-08-07T13:51:40;17.30;99.90
52415;DHT22;38340;52.964;6.086;2023-08-07T13:54:07;17.40;1.00
52415;DHT22;38340;52.964;6.086;2023-08-07T13:56:33;17.70;1.00
52415;DHT22;38340;52.964;6.086;2023-08-07T13:58:59;18.00;1.00
52415;DHT22;38340;52.964;6.086;2023-08-07T14:01:26;18.30;99.90
52415;DHT22;38340;52.964;6.086;2023-08-07T14:03:53;18.40;99.90
52415;DHT22;38340;52.964;6.086;2023-08-07T14:06:19;18.40;99.90
52415;DHT22;38340;52.964;6.086;2023-08-07T14:08:45;18.40;99.90
52415;DHT22;38340;52.964;6.086;2023-08-07T14:11:11;18.60;99.90
52415;DHT22;38340;52.964;6.086;2023-08-07T14:13:39;18.60;99.90
52415;DHT22;38340;52.964;6.086;2023-08-07T14:16:05;18.70;1.00
52415;DHT22;38340;52.964;6.086;2023-08-07T14:18:30;18.60;99.90
52415;DHT22;38340;52.964;6.086;2023-08-07T14:20:56;18.50;99.90
52415;DHT22;38340;52.964;6.086;2023-08-07T14:23:22;18.00;1.00
52415;DHT22;38340;52.964;6.086;2023-08-07T14:25:48;18.00;99.90
52415;DHT22;38340;52.964;6.086;2023-08-07T14:28:18;17.60;99.90
52415;DHT22;38340;52.964;6.086;2023-08-07T14:30:44;17.50;99.90
52415;DHT22;38340;52.964;6.086;2023-08-07T14:33:10;17.60;99.90
52415;DHT22;38340;52.964;6.086;2023-08-07T14:35:36;17.80;99.90
52415;DHT22;38340;52.964;6.086;2023-08-07T14:38:02;18.00;99.90
52415;DHT22;38340;52.964;6.086;2023-08-07T14:40:27;18.20;99.90
52415;DHT22;38340;52.964;6.086;2023-08-07T14:42:54;18.00;1.00
52415;DHT22;38340;52.964;6.086;2023-08-07T14:45:21;18.00;1.00
52415;DHT22;38340;52.964;6.086;2023-08-07T14:47:48;17.90;1.00
52415;DHT22;38340;52.964;6.086;2023-08-07T14:50:13;17.60;99.90
52415;DHT22;38340;52.964;6.086;2023-08-07T14:52:41;17.60;1.00
52415;DHT22;38340;52.964;6.086;2023-08-07T14:55:07;17.70;99.90
52415;DHT22;38340;52.964;6.086;2023-08-07T14:57:32;17.60;99.90
52415;DHT22;38340;52.964;6.086;2023-08-07T14:59:58;17.30;99.90
52415;DHT22;38340;52.964;6.086;2023-08-07T15:02:24;17.40;1.00
52415;DHT22;38340;52.964;6.086;2023-08-07T15:04:49;17.40;99.90
52415;DHT22;38340;52.964;6.086;2023-08-07T15:07:15;17.50;99.90
52415;DHT22;38340;52.964;6.086;2023-08-07T15:09:41;17.60;99.90
52415;DHT22;38340;52.964;6.086;2023-08-07T15:12:07;17.70;99.90
52415;DHT22;38340;52.964;6.086;2023-08-07T15:14:33;17.80;99.90
52415;DHT22;38340;52.964;6.086;2023-08-07T15:16:59;17.60;99.90
52415;DHT22;38340;52.964;6.086;2023-08-07T15:19:24;17.50;99.90
52415;DHT22;38340;52.964;6.086;2023-08-07T15:21:51;17.50;99.90
52415;DHT22;38340;52.964;6.086;2023-08-07T15:24:16;17.30;99.90
52415;DHT22;38340;52.964;6.086;2023-08-07T15:26:42;17.30;24.50
52415;DHT22;38340;52.964;6.086;2023-08-07T15:29:08;17.40;51.30
52415;DHT22;38340;52.964;6.086;2023-08-07T15:31:34;17.60;99.90
52415;DHT22;38340;52.964;6.086;2023-08-07T15:34:00;18.00;99.90
52415;DHT22;38340;52.964;6.086;2023-08-07T15:36:25;18.00;36.60
52415;DHT22;38340;52.964;6.086;2023-08-07T15:38:51;18.10;1.00
52415;DHT22;38340;52.964;6.086;2023-08-07T15:41:17;18.20;1.00
52415;DHT22;38340;52.964;6.086;2023-08-07T15:43:43;18.00;99.90
52415;DHT22;38340;52.964;6.086;2023-08-07T15:46:09;17.90;1.00